Bladensburg, Ohio
Current Conditions -  °F | °C
As of 12:35 AM on Thursday 23 Oct 2014 (Local Time) from K4I3 Reporting Station
Scattered Clouds Scattered Clouds  
Wind Chill: 44°   Ceiling: Unl
Heat Index: 46°   Visibility: 10mi
Dew Point: 43°   Wind: 5mph
Humidity: 87%   Direction: 320°NW
Pressure: 30.22"   Gusts: NA
Location:  40.28°N, 82.28°W
Report Text: K4I3 230435Z AUTO 32004KT 10SM SCT030 08/06 A3022 RMK AO2
Loading
Personal Weather Stations






























Interactive Weather Map
Tropical Storm Tracking
New forecast layout! Learn more

10-Day Weather Forecast

Advertisements
Track Severe Weather on mobile